Gridley, IL (61744)

6:02 PM CST on December 10, 2016 (GMT -0600)
Lake Bloomington | | Change Station

Elev 748 ft 40.65 °N, 88.93 °W | Updated 7 seconds ago

Snow
Snow
25.0 °F
Feels Like 25 °F
N
2.0
Wind Variable Wind from West
Gusts 4.9 mph

Today
High -- | Low -- °F
--% Chance of Precip.
Yesterday
High -- | Low -- °F
Precip. -- in
Pressure 30.40 in
Visibility 3.0 miles
Clouds Scattered Clouds 1500 ft
Overcast 2500 ft
Windchill 25 °F
Dew Point 18 °F
Humidity 75%
Rainfall 0.00 in
Snow Depth Not available.
7:09 AM 4:28 PM
Waxing Gibbous, 87% visible
METAR KPNT 102355Z AUTO 16008KT 3SM -SN SCT015 OVC025 M04/M04 A3040 RMK AO2 T10381041 11024 21038
Pressure 30.40 in
Visibility 3.0 miles
Clouds Scattered Clouds 1500 ft
Overcast 2500 ft
Windchill 25 °F
Dew Point 18 °F
Humidity 75%
Rainfall 0.00 in
Snow Depth Not available.
7:09 AM 4:28 PM
Waxing Gibbous, 87% visible
METAR KPNT 102355Z AUTO 16008KT 3SM -SN SCT015 OVC025 M04/M04 A3040 RMK AO2 T10381041 11024 21038

10-Day Weather Forecast

Almanac

Astronomy

Dec. 10, 2016 Rise Set
Actual Time
Civil Twilight
Nautical Twilight
Astronomical Twilight
Moon
Length of Visible Light
Length of Day
Tomorrow will be .
, % of the Moon is Illuminated

Today's Extremes

State Highs State Lows

Community

WunderPhotos

Upload Photos

1,956,677 photos uploaded!

WunderBlog® & News

Nearby

Air Quality

  Air Quality AQ Index Pollutant
Not available.

Snow Depth

Station Depth Elevation

Earthquake Activity

City Distance Mag. Time & Date
Minimum magnitude displayed is 2.5.

Coastal Water Temperatures

Place Temperature

Stations

Nearby Weather Stations

Station Location Temp. Windchill Dew Point Humidity Wind Precip. Elev Updated Type
                   

Watches & Warnings

There are currently no watches in effect.